Time;durP1;ratioP1;P1;durP2;ratioP2;P2;SDS_P1;SDS_P2;PMS_P1;PMS_P2;Temp;Humidity;BMP_temperature;BMP_pressure;BME280_temperature;BME280_humidity;BME280_pressure;Samples;Min_cycle;Max_cycle;Signal;HPM_P1;HPM_P2
2023/10/14 00:01:36;;;;;;;18.05;3.78;;;;;;;7.66;100.00;99214.44;5040022;28;20045;-64
2023/10/14 00:04:10;;;;;;;13.20;3.13;;;;;;;7.80;100.00;99232.81;5040326;28;20156;-64
2023/10/14 00:06:41;;;;;;;24.02;3.45;;;;;;;7.62;100.00;99249.38;5040881;28;20128;-64
2023/10/14 00:09:11;;;;;;;17.65;3.85;;;;;;;7.84;100.00;99246.53;5033277;28;20459;-64
2023/10/14 00:11:50;;;;;;;19.75;2.85;;;;;;;7.68;100.00;99259.47;5035355;28;20064;-64
2023/10/14 00:14:18;;;;;;;13.23;2.75;;;;;;;7.83;100.00;99265.72;5034321;28;20648;-65
2023/10/14 00:16:51;;;;;;;9.45;2.40;;;;;;;7.86;100.00;99272.50;5035457;28;20110;-65
2023/10/14 00:19:20;;;;;;;20.63;2.78;;;;;;;7.77;100.00;99277.28;5047974;28;20491;-65
2023/10/14 00:21:49;;;;;;;11.25;2.28;;;;;;;7.83;100.00;99296.13;5033468;28;20041;-65
2023/10/14 00:24:28;;;;;;;13.95;2.78;;;;;;;7.87;100.00;99293.28;5045553;28;20053;-65
2023/10/14 00:27:07;;;;;;;13.68;2.88;;;;;;;7.96;100.00;99294.59;5044058;28;20512;-65
2023/10/14 00:29:37;;;;;;;12.63;2.35;;;;;;;7.58;100.00;99279.09;5048178;28;20387;-65
2023/10/14 00:32:04;;;;;;;13.40;3.38;;;;;;;7.62;100.00;99309.28;5038242;28;20050;-65
2023/10/14 00:34:31;;;;;;;13.88;2.90;;;;;;;7.65;100.00;99319.56;5041883;28;20053;-65
2023/10/14 00:36:57;;;;;;;12.70;2.67;;;;;;;7.85;100.00;99317.75;5039628;28;20047;-65
2023/10/14 00:39:28;;;;;;;15.90;3.10;;;;;;;7.68;100.00;99310.75;5039262;28;20453;-65
2023/10/14 00:41:56;;;;;;;14.43;2.50;;;;;;;7.66;100.00;99316.03;5039797;28;20056;-65
2023/10/14 00:44:24;;;;;;;11.68;2.55;;;;;;;7.85;100.00;99331.63;5034900;28;20049;-65
2023/10/14 00:46:52;;;;;;;17.15;3.22;;;;;;;7.65;100.00;99340.41;5038253;28;20056;-65
2023/10/14 00:49:30;;;;;;;13.82;2.63;;;;;;;7.69;100.00;99357.56;5047155;28;20045;-64
2023/10/14 00:52:05;;;;;;;12.77;2.83;;;;;;;7.64;100.00;99336.09;5048238;28;20602;-64
2023/10/14 00:59:49;;;;;;;8.05;2.60;;;;;;;7.50;100.00;99341.97;5046662;28;20136;-65
2023/10/14 01:02:38;;;;;;;19.23;3.03;;;;;;;7.35;100.00;99342.69;5043287;28;20067;-65
2023/10/14 01:05:17;;;;;;;11.70;2.63;;;;;;;7.23;100.00;99344.94;5043244;28;20170;-65
2023/10/14 01:07:44;;;;;;;10.80;1.92;;;;;;;7.33;100.00;99373.16;5049324;28;20138;-65
2023/10/14 01:10:24;;;;;;;12.60;2.33;;;;;;;7.37;100.00;99377.31;5049521;28;20060;-65
2023/10/14 01:12:54;;;;;;;12.77;2.63;;;;;;;7.47;100.00;99380.31;5047734;28;20076;-65
2023/10/14 01:15:22;;;;;;;9.93;2.25;;;;;;;7.53;100.00;99388.69;5052321;28;20073;-65
2023/10/14 01:17:52;;;;;;;13.63;2.38;;;;;;;7.25;100.00;99386.53;5052493;28;20136;-65
2023/10/14 01:22:57;;;;;;;9.52;2.13;;;;;;;7.42;100.00;99385.75;5050998;28;20053;-64
2023/10/14 01:25:29;;;;;;;8.05;1.85;;;;;;;7.20;100.00;99389.31;5043907;28;20049;-64
2023/10/14 01:27:59;;;;;;;8.68;2.10;;;;;;;7.12;100.00;99394.03;5039179;28;20475;-64
2023/10/14 01:30:26;;;;;;;11.23;2.50;;;;;;;6.95;100.00;99389.59;5051190;28;20080;-64
2023/10/14 01:33:07;;;;;;;12.07;2.40;;;;;;;7.07;100.00;99405.59;5039790;28;20401;-64
2023/10/14 01:35:40;;;;;;;12.10;2.40;;;;;;;6.88;100.00;99405.53;5047024;28;20056;-64
2023/10/14 01:38:07;;;;;;;;;;;;;;;7.13;100.00;99403.53;5047836;28;20053;-65
2023/10/14 01:40:44;;;;;;;7.90;1.75;;;;;;;7.07;100.00;99410.78;5052668;28;19975;-64
2023/10/14 01:43:10;;;;;;;7.72;1.50;;;;;;;7.11;100.00;99409.72;5053396;28;20045;-64
2023/10/14 01:45:50;;;;;;;10.27;2.50;;;;;;;7.10;100.00;99413.22;5049501;28;20089;-64
2023/10/14 01:48:21;;;;;;;9.95;2.10;;;;;;;7.02;100.00;99424.81;5051779;28;20080;-65
2023/10/14 01:50:55;;;;;;;9.07;1.85;;;;;;;6.92;100.00;99428.75;5052053;28;20056;-65
2023/10/14 01:53:27;;;;;;;12.55;2.83;;;;;;;7.01;100.00;99427.50;5051438;28;20506;-66
2023/10/14 01:55:57;;;;;;;11.57;2.88;;;;;;;7.00;100.00;99424.06;5052048;28;20080;-64
2023/10/14 01:58:32;;;;;;;9.38;2.28;;;;;;;6.84;100.00;99438.66;5052010;28;20072;-64
2023/10/14 02:03:44;;;;;;;9.98;2.22;;;;;;;7.00;100.00;99454.44;5042127;28;20639;-64
2023/10/14 02:06:20;;;;;;;17.65;2.78;;;;;;;7.13;100.00;99462.56;5043346;28;20057;-64
2023/10/14 02:08:50;;;;;;;13.63;2.33;;;;;;;7.09;100.00;99456.66;5038528;28;20059;-64
2023/10/14 02:11:21;;;;;;;6.18;1.63;;;;;;;7.19;100.00;99468.34;5045968;28;20107;-64
2023/10/14 02:13:51;;;;;;;9.15;2.42;;;;;;;7.19;100.00;99470.13;5051364;28;20049;-64
2023/10/14 02:16:25;;;;;;;11.02;2.10;;;;;;;7.18;100.00;99464.03;5049784;28;20153;-65
2023/10/14 02:19:17;;;;;;;10.02;2.00;;;;;;;7.14;100.00;99461.66;5050329;28;20055;-65
2023/10/14 02:21:42;;;;;;;8.68;1.98;;;;;;;7.19;100.00;99480.53;5046366;28;20052;-65
2023/10/14 02:24:10;;;;;;;10.55;2.42;;;;;;;7.02;100.00;99487.28;5051172;28;20194;-65
2023/10/14 02:26:38;;;;;;;10.52;1.98;;;;;;;6.98;100.00;99501.34;5047983;28;20064;-64
2023/10/14 02:29:11;;;;;;;13.38;2.17;;;;;;;6.90;100.00;99506.03;5050595;28;20056;-64
2023/10/14 02:31:38;;;;;;;9.05;2.28;;;;;;;6.87;100.00;99479.28;5043486;28;20518;-65
2023/10/14 02:34:08;;;;;;;8.38;1.90;;;;;;;7.03;100.00;99504.59;5044243;28;20053;-65
2023/10/14 02:36:48;;;;;;;11.90;2.25;;;;;;;6.89;100.00;99513.88;5046709;28;20052;-64
2023/10/14 02:39:16;;;;;;;13.70;2.22;;;;;;;6.79;100.00;99514.28;5050991;28;20099;-65
2023/10/14 02:41:45;;;;;;;13.40;1.75;;;;;;;6.91;100.00;99512.94;5039604;28;20044;-65
2023/10/14 02:46:45;;;;;;;13.45;2.78;;;;;;;6.64;100.00;99520.13;5043098;28;20486;-65
2023/10/14 02:49:15;;;;;;;13.88;2.50;;;;;;;6.47;100.00;99510.41;5050972;28;20190;-65
2023/10/14 02:51:43;;;;;;;9.05;2.03;;;;;;;6.75;100.00;99519.69;5046857;28;20136;-65
2023/10/14 02:54:26;;;;;;;9.98;2.17;;;;;;;6.82;100.00;99528.94;5050515;28;20114;-65
2023/10/14 02:59:23;;;;;;;12.18;2.10;;;;;;;6.92;100.00;99547.59;5049264;28;20121;-65
2023/10/14 03:01:52;;;;;;;12.10;2.38;;;;;;;6.81;100.00;99528.06;5046388;28;20041;-65
2023/10/14 03:04:23;;;;;;;8.80;2.35;;;;;;;6.94;100.00;99538.84;5049765;28;20051;-65
2023/10/14 03:06:55;;;;;;;10.32;2.33;;;;;;;7.07;100.00;99541.75;5042000;28;20076;-65
2023/10/14 03:09:33;;;;;;;18.23;3.13;;;;;;;6.96;100.00;99546.59;5049587;28;20057;-65
2023/10/14 03:12:01;;;;;;;11.30;2.67;;;;;;;6.82;100.00;99545.38;5048880;28;20041;-65
2023/10/14 03:14:30;;;;;;;12.45;2.33;;;;;;;6.68;100.00;99542.50;5049821;28;20049;-65
2023/10/14 03:16:57;;;;;;;11.55;2.17;;;;;;;6.87;100.00;99562.56;5048894;28;20541;-65
2023/10/14 03:19:25;;;;;;;14.02;2.97;;;;;;;6.67;100.00;99565.97;5049755;28;20132;-65
2023/10/14 03:22:01;;;;;;;9.15;2.17;;;;;;;6.69;100.00;99572.78;5042866;28;20052;-65
2023/10/14 03:24:32;;;;;;;12.75;2.13;;;;;;;6.62;100.00;99597.34;5049796;28;20103;-65
2023/10/14 03:27:04;;;;;;;8.45;1.73;;;;;;;6.58;100.00;99588.00;5049725;28;20056;-65
2023/10/14 03:29:31;;;;;;;14.32;2.58;;;;;;;6.72;100.00;99579.66;5052985;28;20387;-65
2023/10/14 03:31:57;;;;;;;11.18;2.05;;;;;;;6.68;100.00;99597.13;5039670;28;20069;-65
2023/10/14 03:34:30;;;;;;;11.77;2.60;;;;;;;6.52;100.00;99577.84;5049095;28;20084;-65
2023/10/14 03:37:00;;;;;;;12.18;2.63;;;;;;;6.73;100.00;99586.53;5049084;28;20127;-65
2023/10/14 03:39:46;;;;;;;14.18;2.47;;;;;;;6.59;100.00;99600.09;5050245;28;20049;-65
2023/10/14 03:42:16;;;;;;;8.80;2.45;;;;;;;6.63;100.00;99606.88;5037804;28;20088;-65
2023/10/14 03:44:43;;;;;;;13.15;2.97;;;;;;;6.46;100.00;99600.56;5048632;28;20048;-65
2023/10/14 03:47:16;;;;;;;18.35;4.15;;;;;;;6.62;100.00;99598.22;5038368;28;20053;-65
2023/10/14 03:49:43;;;;;;;17.67;3.40;;;;;;;6.35;100.00;99597.53;5042997;28;20088;-65
2023/10/14 03:52:12;;;;;;;15.45;2.90;;;;;;;6.48;100.00;99600.53;5044877;28;20055;-65
2023/10/14 03:54:42;;;;;;;9.70;2.00;;;;;;;6.62;100.00;99616.44;5047560;28;20053;-65
2023/10/14 03:57:17;;;;;;;9.48;1.90;;;;;;;6.65;100.00;99610.25;5030439;28;20050;-65
2023/10/14 03:59:47;;;;;;;14.02;2.85;;;;;;;6.51;100.00;99602.97;5048577;28;20529;-65
2023/10/14 04:02:24;;;;;;;10.20;2.33;;;;;;;6.59;100.00;99619.16;5036061;28;20041;-65
2023/10/14 04:04:58;;;;;;;14.48;2.83;;;;;;;6.65;100.00;99642.31;5043282;28;20056;-65
2023/10/14 04:07:28;;;;;;;13.20;3.17;;;;;;;6.65;100.00;99638.84;5048874;28;20041;-65
2023/10/14 04:10:04;;;;;;;11.82;2.40;;;;;;;6.52;100.00;99638.50;5049814;28;20441;-64
2023/10/14 04:12:40;;;;;;;16.10;2.80;;;;;;;6.60;100.00;99646.00;5035298;28;20076;-64
2023/10/14 04:17:40;;;;;;;18.13;2.67;;;;;;;6.62;100.00;99649.38;5048760;28;20059;-64
2023/10/14 04:22:38;;;;;;;10.85;2.63;;;;;;;6.50;100.00;99640.31;5044316;28;20089;-65
2023/10/14 04:25:19;;;;;;;13.15;3.83;;;;;;;6.49;100.00;99661.16;5049575;28;20128;-65
2023/10/14 04:30:32;;;;;;;14.50;2.60;;;;;;;6.53;100.00;99668.78;5049383;28;20060;-65
2023/10/14 04:35:36;;;;;;;9.57;3.05;;;;;;;6.23;100.00;99689.84;5047831;28;20053;-65
2023/10/14 04:38:17;;;;;;;12.30;2.65;;;;;;;6.38;100.00;99666.78;5049095;28;20477;-65
2023/10/14 04:40:53;;;;;;;9.52;2.45;;;;;;;6.32;100.00;99657.47;5050179;28;20056;-65
2023/10/14 04:45:54;;;;;;;11.45;2.22;;;;;;;6.33;100.00;99679.94;5049046;28;20056;-65
2023/10/14 04:51:09;;;;;;;17.65;3.15;;;;;;;6.47;100.00;99676.81;5033310;28;20057;-65
2023/10/14 04:53:42;;;;;;;20.23;3.20;;;;;;;6.57;100.00;99672.09;5052853;28;20103;-66
2023/10/14 04:56:10;;;;;;;;;;;;;;;6.57;100.00;99687.72;5054815;28;20045;-66
2023/10/14 04:58:40;;;;;;;13.27;2.55;;;;;;;6.35;100.00;99683.31;5051410;28;19928;-65
2023/10/14 05:01:17;;;;;;;12.27;2.60;;;;;;;6.27;100.00;99661.97;5048445;28;20072;-66
2023/10/14 05:03:46;;;;;;;13.63;2.95;;;;;;;6.26;100.00;99675.88;5038102;28;20171;-65
2023/10/14 05:08:51;;;;;;;15.85;2.50;;;;;;;6.40;100.00;99719.56;5051858;28;20063;-64
2023/10/14 05:11:18;;;;;;;11.88;2.58;;;;;;;6.43;100.00;99716.84;5049890;28;20053;-64
2023/10/14 05:13:53;;;;;;;11.85;2.75;;;;;;;6.45;100.00;99699.44;5049915;28;20053;-65
2023/10/14 05:16:26;;;;;;;16.85;2.90;;;;;;;6.30;100.00;99702.59;5051502;28;20084;-65
2023/10/14 05:19:11;;;;;;;17.73;4.05;;;;;;;6.10;100.00;99716.31;5052261;28;20098;-65
2023/10/14 05:21:44;;;;;;;15.10;4.18;;;;;;;6.43;100.00;99720.28;5048872;28;20499;-65
2023/10/14 05:24:11;;;;;;;16.67;3.45;;;;;;;6.16;100.00;99711.75;5050928;28;20062;-65
2023/10/14 05:26:58;;;;;;;13.27;2.80;;;;;;;6.40;100.00;99735.16;5048964;28;20607;-65
2023/10/14 05:29:26;;;;;;;15.80;3.10;;;;;;;6.44;100.00;99739.34;5049784;28;20140;-65
2023/10/14 05:31:53;;;;;;;9.25;2.75;;;;;;;6.37;100.00;99745.66;5049657;28;20060;-65
2023/10/14 05:34:26;;;;;;;14.43;3.20;;;;;;;6.27;100.00;99745.16;5051848;28;20169;-65
2023/10/14 05:36:55;;;;;;;14.43;3.10;;;;;;;6.33;100.00;99751.91;5053723;28;20059;-65
2023/10/14 05:39:23;;;;;;;14.00;3.85;;;;;;;6.29;100.00;99764.16;5049348;28;20053;-65
2023/10/14 05:41:58;;;;;;;13.45;2.38;;;;;;;6.23;100.00;99759.16;5047489;28;20088;-65
2023/10/14 05:44:28;;;;;;;18.42;4.13;;;;;;;5.94;100.00;99760.16;5051591;28;20735;-65
2023/10/14 05:46:55;;;;;;;13.80;2.75;;;;;;;6.18;100.00;99776.66;5048288;28;20052;-65
2023/10/14 05:49:24;;;;;;;15.35;3.00;;;;;;;6.20;100.00;99791.31;5050595;28;20103;-65
2023/10/14 05:51:52;;;;;;;13.52;3.13;;;;;;;6.08;100.00;99771.78;5046927;28;20510;-65
2023/10/14 05:54:22;;;;;;;20.23;2.90;;;;;;;6.25;100.00;99796.34;5050860;28;20060;-65
2023/10/14 05:56:52;;;;;;;16.00;4.30;;;;;;;5.91;100.00;99787.06;5048223;28;20410;-65
2023/10/14 05:59:18;;;;;;;11.73;2.55;;;;;;;6.21;100.00;99789.56;5050250;28;20056;-65
2023/10/14 06:01:46;;;;;;;15.73;3.05;;;;;;;6.23;100.00;99783.41;5049236;28;20454;-65
2023/10/14 06:04:14;;;;;;;16.50;3.20;;;;;;;6.11;100.00;99799.44;5048601;28;20051;-66
2023/10/14 06:06:41;;;;;;;19.65;3.75;;;;;;;6.12;100.00;99821.91;5050990;28;20143;-66
2023/10/14 06:09:09;;;;;;;12.00;3.08;;;;;;;6.13;100.00;99814.97;5051219;28;20079;-65
2023/10/14 06:11:36;;;;;;;13.98;3.60;;;;;;;6.09;100.00;99835.00;5049268;28;20493;-66
2023/10/14 06:14:03;;;;;;;16.38;3.65;;;;;;;6.26;100.00;99834.44;5050994;28;20399;-65
2023/10/14 06:16:31;;;;;;;9.30;2.17;;;;;;;6.30;100.00;99843.00;5050400;28;20099;-65
2023/10/14 06:19:04;;;;;;;14.75;2.78;;;;;;;6.20;100.00;99851.09;5050828;28;20045;-65
2023/10/14 06:21:33;;;;;;;10.88;2.78;;;;;;;6.16;100.00;99849.53;5045524;28;20123;-65
2023/10/14 06:24:00;;;;;;;13.00;2.55;;;;;;;6.14;100.00;99855.66;5050904;28;20563;-66
2023/10/14 06:26:27;;;;;;;13.75;2.53;;;;;;;6.15;100.00;99859.97;5046788;28;20053;-65
2023/10/14 06:28:56;;;;;;;10.50;2.97;;;;;;;6.21;100.00;99860.59;5050796;28;20056;-65
2023/10/14 06:31:23;;;;;;;18.33;2.95;;;;;;;6.26;100.00;99863.03;5049064;28;20769;-65
2023/10/14 06:33:54;;;;;;;16.20;4.20;;;;;;;6.08;100.00;99875.75;5050034;28;20041;-65
2023/10/14 06:36:24;;;;;;;15.90;2.67;;;;;;;6.14;100.00;99879.88;5048786;28;20052;-65
2023/10/14 06:38:51;;;;;;;11.20;2.35;;;;;;;6.21;100.00;99883.13;5049115;28;20068;-65
2023/10/14 06:41:18;;;;;;;8.27;2.53;;;;;;;6.13;100.00;99882.56;5047373;28;20540;-65
2023/10/14 06:43:55;;;;;;;16.80;3.30;;;;;;;6.16;100.00;99888.50;5050143;28;20045;-65
2023/10/14 06:46:22;;;;;;;14.25;3.33;;;;;;;6.02;100.00;99886.34;5049610;28;20426;-65
2023/10/14 06:48:55;;;;;;;17.05;2.75;;;;;;;6.11;100.00;99903.41;5050210;28;20422;-65
2023/10/14 06:51:22;;;;;;;22.90;3.85;;;;;;;6.05;100.00;99900.97;5047519;28;20060;-65
2023/10/14 06:53:51;;;;;;;10.50;2.40;;;;;;;6.25;100.00;99901.19;5050291;28;20095;-65
2023/10/14 06:56:20;;;;;;;10.85;2.28;;;;;;;6.29;100.00;99909.75;5051216;28;20139;-65
2023/10/14 06:58:47;;;;;;;14.10;2.75;;;;;;;6.16;100.00;99908.44;5049952;28;20119;-65
2023/10/14 07:01:16;;;;;;;11.70;3.08;;;;;;;6.13;100.00;99896.41;5045546;28;20041;-65
2023/10/14 07:03:43;;;;;;;13.95;3.38;;;;;;;6.30;100.00;99918.38;5046408;28;20037;-65
2023/10/14 07:06:10;;;;;;;12.57;2.75;;;;;;;6.22;100.00;99905.66;5050218;28;20051;-64
2023/10/14 07:08:39;;;;;;;20.27;3.13;;;;;;;6.26;100.00;99926.28;5050171;28;20060;-65
2023/10/14 07:11:06;;;;;;;14.73;3.33;;;;;;;6.26;100.00;99936.66;5046658;28;20053;-65
2023/10/14 07:13:33;;;;;;;16.92;4.15;;;;;;;6.18;100.00;99946.47;5050563;28;20167;-64
2023/10/14 07:16:08;;;;;;;13.57;2.90;;;;;;;5.96;100.00;99924.66;5050100;28;20069;-65
2023/10/14 07:18:38;;;;;;;11.20;2.80;;;;;;;6.14;100.00;99952.66;5050323;28;20110;-65
2023/10/14 07:21:12;;;;;;;14.63;2.70;;;;;;;6.22;100.00;99955.88;5043334;28;20052;-65
2023/10/14 07:23:39;;;;;;;11.75;2.50;;;;;;;6.30;100.00;99962.56;5049072;28;20048;-65
2023/10/14 07:26:12;;;;;;;14.02;3.53;;;;;;;6.32;100.00;99965.97;5050174;28;20053;-65
2023/10/14 07:28:44;;;;;;;14.30;3.13;;;;;;;6.46;100.00;99976.78;5049217;28;20091;-65
2023/10/14 07:31:12;;;;;;;9.93;2.45;;;;;;;6.88;100.00;99991.00;5048277;28;20045;-65
2023/10/14 07:33:40;;;;;;;15.10;3.35;;;;;;;6.82;100.00;100008.53;5049635;28;20075;-65
2023/10/14 07:36:07;;;;;;;11.00;3.55;;;;;;;6.87;100.00;99995.38;5047315;28;20476;-65
2023/10/14 07:38:35;;;;;;;12.60;2.42;;;;;;;7.26;100.00;99989.69;5048140;28;20461;-65
2023/10/14 07:41:03;;;;;;;11.98;2.60;;;;;;;7.12;100.00;99992.75;5045739;28;20546;-65
2023/10/14 07:43:29;;;;;;;14.95;2.97;;;;;;;7.34;100.00;100003.25;5049709;28;20099;-65
2023/10/14 07:45:58;;;;;;;13.10;2.60;;;;;;;7.07;100.00;99996.44;5050642;28;20053;-65
2023/10/14 07:48:25;;;;;;;9.50;2.10;;;;;;;7.25;100.00;100003.59;5047504;28;20124;-65
2023/10/14 07:50:58;;;;;;;11.95;2.22;;;;;;;7.31;100.00;100000.78;5047414;28;20055;-65
2023/10/14 07:53:36;;;;;;;16.23;2.70;;;;;;;7.71;100.00;100006.28;5048802;28;20037;-65
2023/10/14 07:56:06;;;;;;;9.88;2.92;;;;;;;7.49;100.00;100029.66;5049012;28;20052;-65
2023/10/14 07:58:33;;;;;;;11.73;2.20;;;;;;;7.76;100.00;100044.28;5050236;28;20051;-65
2023/10/14 08:01:06;;;;;;;14.82;2.97;;;;;;;7.52;100.00;100029.53;5047198;28;20134;-65
2023/10/14 08:03:36;;;;;;;9.85;2.78;;;;;;;7.73;100.00;100035.72;5033308;28;20053;-64
2023/10/14 08:06:05;;;;;;;12.52;2.47;;;;;;;7.72;100.00;100044.44;5049055;28;20106;-64
2023/10/14 08:08:42;;;;;;;7.93;2.17;;;;;;;7.94;100.00;100050.56;5048505;28;20048;-64
2023/10/14 08:11:12;;;;;;;11.25;2.08;;;;;;;8.12;100.00;100050.78;5046259;28;20520;-65
2023/10/14 08:13:40;;;;;;;11.45;2.20;;;;;;;8.15;100.00;100059.31;5033518;28;20077;-64
2023/10/14 08:16:08;;;;;;;10.75;2.58;;;;;;;8.01;100.00;100059.00;5047570;28;20528;-64
2023/10/14 08:18:35;;;;;;;9.05;1.85;;;;;;;8.11;100.00;100049.06;5049422;28;20059;-65
2023/10/14 08:21:03;;;;;;;15.02;2.50;;;;;;;7.55;100.00;100063.31;5047187;28;20057;-64
2023/10/14 08:23:30;;;;;;;12.27;2.25;;;;;;;7.56;100.00;100060.66;5049901;28;20079;-64
2023/10/14 08:25:59;;;;;;;10.15;1.90;;;;;;;8.30;100.00;100054.41;5042299;28;20103;-64
2023/10/14 08:28:27;;;;;;;10.63;2.00;;;;;;;8.19;100.00;100057.44;5041483;28;20049;-64
2023/10/14 08:30:55;;;;;;;7.97;1.83;;;;;;;8.30;100.00;100062.25;5050226;28;20520;-64
2023/10/14 08:33:24;;;;;;;8.27;1.75;;;;;;;8.51;100.00;100077.09;5040596;28;20041;-65
2023/10/14 08:35:52;;;;;;;7.88;2.13;;;;;;;8.28;100.00;100097.97;5051607;28;20047;-65
2023/10/14 08:38:22;;;;;;;8.30;2.03;;;;;;;8.29;100.00;100091.88;5052639;28;20119;-64
2023/10/14 08:40:59;;;;;;;7.18;1.98;;;;;;;8.35;100.00;100095.06;5050467;28;20800;-64
2023/10/14 08:43:30;;;;;;;8.85;2.00;;;;;;;8.13;100.00;100121.13;5052433;28;20049;-65
2023/10/14 08:46:00;;;;;;;7.28;1.80;;;;;;;8.36;100.00;100103.75;5050321;28;20059;-65
2023/10/14 08:48:29;;;;;;;9.10;1.77;;;;;;;8.47;100.00;100101.59;5051897;28;20077;-65
2023/10/14 08:50:57;;;;;;;8.98;1.50;;;;;;;8.68;100.00;100128.63;5049672;28;20053;-65
2023/10/14 08:53:27;;;;;;;9.52;1.80;;;;;;;7.85;100.00;100121.28;5051593;28;20392;-65
2023/10/14 08:55:57;;;;;;;7.30;1.60;;;;;;;8.10;100.00;100123.00;5053988;28;20091;-65
2023/10/14 08:58:25;;;;;;;8.57;1.90;;;;;;;8.13;100.00;100125.50;5051978;28;20455;-65
2023/10/14 09:00:53;;;;;;;8.02;2.00;;;;;;;7.84;100.00;100121.34;5048062;28;20171;-65
2023/10/14 09:03:21;;;;;;;8.13;1.60;;;;;;;7.70;100.00;100132.25;5051568;28;20068;-65
2023/10/14 09:05:48;;;;;;;7.35;1.65;;;;;;;8.03;100.00;100138.00;5047472;28;20065;-64
2023/10/14 09:08:16;;;;;;;8.40;2.47;;;;;;;8.22;100.00;100130.38;5050837;28;20053;-65
2023/10/14 09:10:44;;;;;;;8.80;3.13;;;;;;;7.98;100.00;100132.97;5050523;28;20044;-65
2023/10/14 09:13:19;;;;;;;8.85;1.50;;;;;;;8.19;100.00;100122.66;5050262;28;20039;-65
2023/10/14 09:15:46;;;;;;;8.95;1.55;;;;;;;8.31;100.00;100140.44;5049866;28;20045;-65
2023/10/14 09:18:19;;;;;;;6.22;1.50;;;;;;;8.27;100.00;100136.25;5050809;28;20057;-65
2023/10/14 09:20:54;;;;;;;8.18;1.83;;;;;;;8.28;100.00;100130.13;5048714;28;20056;-65
2023/10/14 09:23:39;;;;;;;6.85;1.40;;;;;;;8.60;100.00;100128.06;5049898;28;20446;-65
2023/10/14 09:26:07;;;;;;;7.97;1.80;;;;;;;8.68;100.00;100143.44;5050298;28;20498;-65
2023/10/14 09:28:35;;;;;;;3.92;1.33;;;;;;;8.92;100.00;100160.75;5051334;28;20059;-65
2023/10/14 09:31:07;;;;;;;6.60;1.35;;;;;;;8.61;100.00;100171.53;5049351;28;20052;-64
2023/10/14 09:33:38;;;;;;;7.07;1.60;;;;;;;8.49;100.00;100164.16;5049236;28;20045;-65
2023/10/14 09:36:14;;;;;;;5.65;1.33;;;;;;;8.74;100.00;100149.25;5050979;28;20446;-64
2023/10/14 09:38:43;;;;;;;5.57;1.65;;;;;;;8.63;100.00;100161.88;5048200;28;20481;-65
2023/10/14 09:41:11;;;;;;;12.00;1.83;;;;;;;8.49;100.00;100162.41;5048996;28;20041;-65
2023/10/14 09:43:48;;;;;;;8.68;2.13;;;;;;;8.35;100.00;100165.50;5049264;28;20672;-66
2023/10/14 09:46:19;;;;;;;5.38;1.65;;;;;;;8.64;100.00;100160.97;5048773;28;20383;-65
2023/10/14 09:48:47;;;;;;;6.47;1.70;;;;;;;8.74;100.00;100179.72;5050088;28;20057;-66
2023/10/14 09:51:17;;;;;;;11.52;2.55;;;;;;;8.54;100.00;100194.38;5047650;28;20049;-66
2023/10/14 09:53:48;;;;;;;8.05;1.85;;;;;;;8.49;100.00;100196.31;5049978;28;20065;-65
2023/10/14 09:56:16;;;;;;;7.15;1.80;;;;;;;8.63;100.00;100198.41;5048022;28;20049;-65
2023/10/14 09:59:01;;;;;;;8.05;1.83;;;;;;;8.26;100.00;100206.72;5048289;28;20458;-65
2023/10/14 10:01:29;;;;;;;12.70;1.98;;;;;;;8.69;100.00;100224.28;5048019;28;20135;-65
2023/10/14 10:04:03;;;;;;;14.32;2.13;;;;;;;8.85;100.00;100227.16;5048397;28;20049;-65
2023/10/14 10:06:54;;;;;;;8.35;1.92;;;;;;;8.36;100.00;100236.78;5050862;28;20052;-65
2023/10/14 10:09:52;;;;;;;6.93;1.63;;;;;;;8.91;100.00;100245.19;5049955;28;20127;-65
2023/10/14 10:12:22;;;;;;;7.90;1.88;;;;;;;8.69;100.00;100244.31;5024550;28;20057;-66
2023/10/14 10:14:58;;;;;;;9.65;1.92;;;;;;;8.89;100.00;100249.63;5049839;28;20041;-66
2023/10/14 10:17:26;;;;;;;8.50;1.95;;;;;;;8.67;100.00;100261.78;5050411;28;20055;-66
2023/10/14 10:20:12;;;;;;;7.47;1.70;;;;;;;9.00;100.00;100254.44;5047145;28;20120;-65
2023/10/14 10:22:41;;;;;;;9.10;2.53;;;;;;;9.19;100.00;100283.31;5045623;28;20095;-65
2023/10/14 10:25:11;;;;;;;12.40;2.45;;;;;;;9.19;100.00;100274.59;5050239;28;20156;-66
2023/10/14 10:27:39;;;;;;;9.32;2.03;;;;;;;8.99;100.00;100275.38;5049791;28;20136;-66
2023/10/14 10:30:11;;;;;;;14.02;2.28;;;;;;;8.96;100.00;100265.91;5048683;28;20052;-65
2023/10/14 10:32:38;;;;;;;9.18;1.83;;;;;;;9.21;100.00;100267.56;5046684;28;20696;-66
2023/10/14 10:35:05;;;;;;;11.27;2.03;;;;;;;8.96;100.00;100273.75;5050064;28;20041;-66
2023/10/14 10:37:50;;;;;;;10.60;3.03;;;;;;;8.95;100.00;100277.25;5046855;28;20426;-65
2023/10/14 10:40:27;;;;;;;9.75;2.25;;;;;;;9.02;100.00;100288.31;5047317;28;20045;-65
2023/10/14 10:43:05;;;;;;;7.20;1.83;;;;;;;9.15;100.00;100279.09;5045009;28;20175;-65
2023/10/14 10:45:33;;;;;;;10.52;2.10;;;;;;;9.28;100.00;100293.38;5050197;28;20049;-66
2023/10/14 10:48:05;;;;;;;9.95;2.10;;;;;;;9.51;100.00;100281.19;5050413;28;20139;-65
2023/10/14 10:50:37;;;;;;;13.27;2.03;;;;;;;9.32;100.00;100317.63;5047898;28;20060;-66
2023/10/14 10:53:10;;;;;;;9.43;2.35;;;;;;;9.15;100.00;100299.16;5046237;28;20489;-65
2023/10/14 10:55:43;;;;;;;9.75;1.80;;;;;;;8.95;100.00;100312.97;5046509;28;20076;-65
2023/10/14 10:58:11;;;;;;;10.90;1.90;;;;;;;9.16;100.00;100303.47;5049959;28;20059;-66
2023/10/14 11:00:40;;;;;;;10.13;1.95;;;;;;;9.37;100.00;100312.25;5047773;28;20057;-65
2023/10/14 11:03:07;;;;;;;9.80;1.98;;;;;;;9.46;100.00;100310.09;5047971;28;20052;-66
2023/10/14 11:05:45;;;;;;;12.73;3.58;;;;;;;9.50;100.00;100314.28;5051906;28;20048;-66
2023/10/14 11:08:15;;;;;;;13.10;2.45;;;;;;;9.42;100.00;100329.44;5048750;28;20059;-65
2023/10/14 11:10:44;;;;;;;18.13;3.20;;;;;;;9.38;100.00;100332.22;5048736;28;20080;-65
2023/10/14 11:13:13;;;;;;;8.43;2.30;;;;;;;9.82;100.00;100337.44;5040277;28;20045;-65
2023/10/14 11:15:43;;;;;;;13.07;2.38;;;;;;;10.03;100.00;100348.78;5049308;28;20057;-65
2023/10/14 11:18:10;;;;;;;8.55;1.80;;;;;;;9.44;100.00;100358.13;5049144;28;20076;-65
2023/10/14 11:20:49;;;;;;;10.65;1.95;;;;;;;9.64;100.00;100336.41;5045776;28;20140;-65
2023/10/14 11:23:17;;;;;;;10.95;2.53;;;;;;;9.88;100.00;100331.97;5047603;28;20056;-65
2023/10/14 11:25:50;;;;;;;12.20;2.17;;;;;;;10.24;100.00;100339.19;5049539;28;20498;-66
2023/10/14 11:28:17;;;;;;;9.00;1.90;;;;;;;9.71;100.00;100348.31;5048613;28;20515;-65
2023/10/14 11:30:46;;;;;;;9.60;2.20;;;;;;;9.90;100.00;100345.81;5047574;28;20048;-65
2023/10/14 11:33:14;;;;;;;7.72;2.08;;;;;;;9.68;100.00;100372.84;5047861;28;20520;-65
2023/10/14 11:35:41;;;;;;;9.48;2.28;;;;;;;9.75;100.00;100338.59;5046437;28;20676;-65
2023/10/14 11:38:13;;;;;;;9.00;1.95;;;;;;;9.64;100.00;100346.88;5064188;28;20048;-66
2023/10/14 11:40:45;;;;;;;11.30;2.20;;;;;;;9.85;100.00;100379.16;5049275;28;20445;-66
2023/10/14 11:43:12;;;;;;;14.43;2.70;;;;;;;9.89;100.00;100367.63;5040675;28;20068;-65
2023/10/14 11:45:43;;;;;;;8.18;2.03;;;;;;;9.82;100.00;100364.41;5048345;28;20061;-65
2023/10/14 11:48:20;;;;;;;9.95;1.95;;;;;;;9.82;100.00;100390.56;5046755;28;20407;-65
2023/10/14 11:50:47;;;;;;;10.73;2.20;;;;;;;9.87;100.00;100372.09;5047576;28;20072;-65
2023/10/14 11:53:14;;;;;;;11.13;2.42;;;;;;;9.92;100.00;100377.97;5046607;28;20128;-65
2023/10/14 11:55:41;;;;;;;15.90;3.63;;;;;;;9.61;100.00;100373.97;5047411;28;20057;-65
2023/10/14 11:58:08;;;;;;;8.70;1.90;;;;;;;9.64;100.00;100399.16;5046896;28;20071;-65
2023/10/14 12:00:34;;;;;;;16.88;2.63;;;;;;;10.15;100.00;100391.91;5047061;28;20073;-64
2023/10/14 12:03:05;;;;;;;8.98;1.88;;;;;;;10.06;100.00;100404.44;5038248;28;20463;-65
2023/10/14 12:05:39;;;;;;;6.53;1.70;;;;;;;10.31;100.00;100402.56;5046286;28;20481;-65
2023/10/14 12:08:09;;;;;;;8.65;1.90;;;;;;;10.07;100.00;100400.03;5047888;28;20056;-65
2023/10/14 12:10:36;;;;;;;8.32;2.15;;;;;;;10.10;100.00;100407.78;5048595;28;20053;-65
2023/10/14 12:13:03;;;;;;;7.60;1.90;;;;;;;10.38;100.00;100411.91;5045733;28;20128;-65
2023/10/14 12:15:35;;;;;;;7.85;1.88;;;;;;;9.84;100.00;100424.50;5046140;28;20129;-65